createdAt,value
2023-03-21T00:02:17.210Z,35.85
2023-03-21T00:05:15.049Z,38.60
2023-03-21T00:08:05.618Z,34.17
2023-03-21T00:11:00.644Z,31.60
2023-03-21T00:13:49.726Z,33.05
2023-03-21T00:16:36.697Z,34.30
2023-03-21T00:19:26.726Z,34.65
2023-03-21T00:22:13.080Z,31.50
2023-03-21T00:24:59.878Z,36.10
2023-03-21T00:28:01.450Z,32.38
2023-03-21T00:31:03.182Z,29.48
2023-03-21T00:33:49.852Z,30.73
2023-03-21T00:37:15.940Z,32.03
2023-03-21T00:40:02.822Z,37.03
2023-03-21T00:42:50.649Z,33.15
2023-03-21T00:45:38.238Z,29.83
2023-03-21T00:48:34.318Z,32.70
2023-03-21T00:51:27.503Z,30.38
2023-03-21T00:54:14.670Z,29.80
2023-03-21T00:57:07.718Z,29.73
2023-03-21T00:59:54.869Z,33.20
2023-03-21T01:03:14.075Z,29.48
2023-03-21T01:06:05.295Z,30.48
2023-03-21T01:16:17.908Z,28.77
2023-03-21T01:19:09.441Z,26.40
2023-03-21T01:28:39.526Z,30.17
2023-03-21T01:31:26.944Z,28.30
2023-03-21T01:34:13.775Z,27.45
2023-03-21T01:37:01.683Z,31.05
2023-03-21T01:39:49.387Z,29.67
2023-03-21T01:42:36.222Z,26.90
2023-03-21T01:45:59.975Z,25.23
2023-03-21T01:49:07.225Z,24.83
2023-03-21T01:52:01.045Z,25.95
2023-03-21T01:54:52.166Z,22.42
2023-03-21T01:57:49.459Z,20.25
2023-03-21T02:00:43.924Z,18.27
2023-03-21T02:03:52.748Z,20.92
2023-03-21T02:07:17.978Z,20.58
2023-03-21T02:10:17.582Z,21.10
2023-03-21T02:16:56.270Z,20.42
2023-03-21T02:20:01.729Z,23.30
2023-03-21T02:23:18.439Z,19.85
2023-03-21T02:26:36.113Z,23.05
2023-03-21T02:29:53.227Z,20.58
2023-03-21T02:33:00.257Z,18.75
2023-03-21T02:35:54.542Z,21.55
2023-03-21T02:39:04.962Z,20.27
2023-03-21T02:41:55.678Z,17.48
2023-03-21T02:45:15.786Z,17.70
2023-03-21T02:48:14.589Z,17.58
2023-03-21T02:51:05.888Z,15.05
2023-03-21T02:54:23.730Z,20.67
2023-03-21T02:57:05.681Z,15.38
2023-03-21T02:59:56.922Z,21.35
2023-03-21T03:03:08.331Z,20.25
2023-03-21T03:06:04.093Z,17.98
2023-03-21T03:09:23.142Z,19.42
2023-03-21T03:12:23.932Z,19.45
2023-03-21T03:15:22.178Z,17.35
2023-03-21T03:18:18.714Z,16.15
2023-03-21T03:21:42.419Z,17.10
2023-03-21T03:24:32.879Z,18.77
2023-03-21T03:27:33.395Z,18.48
2023-03-21T03:30:29.691Z,17.10
2023-03-21T03:33:23.668Z,19.25
2023-03-21T03:36:28.406Z,23.08
2023-03-21T03:39:19.297Z,19.38
2023-03-21T03:42:28.201Z,24.98
2023-03-21T03:45:26.733Z,20.67
2023-03-21T03:48:27.724Z,21.90
2023-03-21T03:51:24.552Z,18.70
2023-03-21T03:54:37.487Z,15.80
2023-03-21T03:57:26.666Z,17.52
2023-03-21T04:00:17.350Z,16.67
2023-03-21T04:03:07.465Z,21.67
2023-03-21T04:05:54.283Z,17.80
2023-03-21T04:08:41.576Z,17.83
2023-03-21T04:11:28.044Z,18.83
2023-03-21T04:14:15.536Z,17.42
2023-03-21T04:17:02.952Z,16.52
2023-03-21T04:19:55.622Z,16.98
2023-03-21T04:22:44.227Z,17.50
2023-03-21T04:25:38.668Z,18.70
2023-03-21T04:28:29.871Z,22.65
2023-03-21T04:31:42.945Z,21.75
2023-03-21T04:34:32.851Z,16.20
2023-03-21T04:37:23.727Z,18.27
2023-03-21T04:40:12.447Z,18.27
2023-03-21T04:43:01.513Z,17.23
2023-03-21T04:45:48.131Z,17.45
2023-03-21T04:48:35.734Z,19.80
2023-03-21T04:51:22.241Z,21.13
2023-03-21T04:54:11.893Z,18.90
2023-03-21T04:56:58.837Z,22.45
2023-03-21T04:59:47.311Z,23.05
2023-03-21T05:02:34.473Z,24.33
2023-03-21T05:05:21.200Z,21.10
2023-03-21T05:08:07.972Z,24.00
2023-03-21T05:10:54.850Z,21.55
2023-03-21T05:13:44.058Z,18.40
2023-03-21T05:16:31.082Z,22.30
2023-03-21T05:19:24.260Z,26.02
2023-03-21T05:22:12.303Z,24.02
2023-03-21T05:25:00.356Z,28.65
2023-03-21T05:28:08.137Z,32.17
2023-03-21T05:30:54.547Z,34.00
2023-03-21T05:33:41.419Z,37.50
2023-03-21T05:36:28.086Z,44.67
2023-03-21T05:39:15.052Z,46.05
2023-03-21T05:42:10.206Z,39.33
2023-03-21T05:44:57.280Z,33.40
2023-03-21T05:47:50.559Z,26.95
2023-03-21T05:50:39.434Z,24.35
2023-03-21T05:53:33.429Z,23.10
2023-03-21T05:56:20.534Z,21.92
2023-03-21T05:59:14.529Z,24.55
2023-03-21T06:02:04.292Z,21.13
2023-03-21T06:04:51.213Z,25.42
2023-03-21T06:07:40.966Z,24.48
2023-03-21T06:10:27.695Z,24.15
2023-03-21T06:13:16.285Z,22.92
2023-03-21T06:16:02.790Z,26.02
2023-03-21T06:18:53.252Z,27.02
2023-03-21T06:22:08.660Z,23.35
2023-03-21T06:24:58.919Z,23.00
2023-03-21T06:27:45.746Z,24.60
2023-03-21T06:30:32.755Z,26.13
2023-03-21T06:33:43.016Z,23.35
2023-03-21T06:36:29.903Z,25.05
2023-03-21T06:39:16.777Z,25.42
2023-03-21T06:42:05.498Z,31.80
2023-03-21T06:44:52.225Z,30.77
2023-03-21T06:47:39.435Z,26.58
2023-03-21T06:50:33.174Z,24.67
2023-03-21T06:53:21.309Z,25.38
2023-03-21T06:56:27.781Z,22.40
2023-03-21T06:59:14.794Z,27.42
2023-03-21T07:02:11.715Z,28.15
2023-03-21T07:05:10.117Z,29.25
2023-03-21T07:07:56.898Z,25.23
2023-03-21T07:10:47.647Z,23.60
2023-03-21T07:13:35.428Z,23.85
2023-03-21T07:16:25.346Z,23.50
2023-03-21T07:19:11.926Z,33.85
2023-03-21T07:21:58.503Z,28.73
2023-03-21T07:24:55.932Z,28.80
2023-03-21T07:27:49.736Z,23.77
2023-03-21T07:30:37.219Z,22.92
2023-03-21T07:33:24.925Z,27.52
2023-03-21T07:36:15.596Z,27.90
2023-03-21T07:39:02.343Z,31.70
2023-03-21T07:41:49.701Z,29.75
2023-03-21T07:44:59.716Z,27.60
2023-03-21T07:47:52.107Z,28.42
2023-03-21T07:50:40.152Z,25.20
2023-03-21T07:53:26.726Z,25.20
2023-03-21T07:56:13.548Z,26.95
2023-03-21T07:58:59.842Z,26.45
2023-03-21T08:01:46.620Z,29.60
2023-03-21T08:04:32.720Z,29.67
2023-03-21T08:07:21.352Z,31.25
2023-03-21T08:10:12.045Z,24.40
2023-03-21T08:13:01.592Z,20.73
2023-03-21T08:15:47.972Z,23.33
2023-03-21T08:18:34.878Z,26.75
2023-03-21T08:21:21.604Z,21.20
2023-03-21T08:24:12.368Z,24.52
2023-03-21T08:26:59.582Z,20.90
2023-03-21T08:29:46.765Z,19.63
2023-03-21T08:32:33.948Z,17.48
2023-03-21T08:35:20.765Z,18.77
2023-03-21T08:38:07.694Z,19.35
2023-03-21T08:40:56.324Z,19.33
2023-03-21T08:43:46.852Z,20.55
2023-03-21T08:46:36.545Z,21.83
2023-03-21T08:49:22.861Z,25.83
2023-03-21T08:52:12.461Z,24.00
2023-03-21T08:54:59.313Z,19.80
2023-03-21T08:57:46.886Z,18.30
2023-03-21T09:00:33.708Z,25.92
2023-03-21T09:03:27.909Z,18.35
2023-03-21T09:06:15.077Z,19.67
2023-03-21T09:09:04.547Z,19.45
2023-03-21T09:11:55.477Z,21.40
2023-03-21T09:14:42.830Z,19.23
2023-03-21T09:17:33.542Z,16.70
2023-03-21T09:20:31.343Z,21.48
2023-03-21T09:23:18.613Z,18.75
2023-03-21T09:26:11.772Z,20.30
2023-03-21T09:28:59.398Z,15.93
2023-03-21T09:31:54.242Z,14.20
2023-03-21T09:37:32.978Z,16.60
2023-03-21T09:40:48.485Z,15.88
2023-03-21T09:43:51.525Z,15.65
2023-03-21T09:47:05.894Z,15.07
2023-03-21T09:50:12.838Z,15.07
2023-03-21T09:53:05.717Z,14.82
2023-03-21T09:55:54.570Z,15.65
2023-03-21T09:58:47.281Z,16.65
2023-03-21T10:01:42.201Z,16.27
2023-03-21T10:04:33.219Z,16.95
2023-03-21T10:07:23.952Z,16.38
2023-03-21T10:10:17.320Z,15.30
2023-03-21T10:13:06.353Z,13.70
2023-03-21T10:15:57.879Z,15.52
2023-03-21T10:18:46.955Z,15.13
2023-03-21T10:21:59.333Z,14.70
2023-03-21T10:24:47.850Z,14.70
2023-03-21T10:27:38.017Z,15.13
2023-03-21T10:30:36.740Z,17.83
2023-03-21T10:33:37.137Z,14.13
2023-03-21T10:36:30.458Z,14.63
2023-03-21T10:39:38.967Z,18.75
2023-03-21T10:42:31.873Z,14.48
2023-03-21T10:45:20.703Z,16.40
2023-03-21T10:48:11.337Z,16.73
2023-03-21T10:50:58.076Z,16.60
2023-03-21T10:54:14.882Z,13.57
2023-03-21T10:57:08.009Z,17.23
2023-03-21T11:00:00.236Z,13.07
2023-03-21T11:02:51.596Z,14.50
2023-03-21T11:05:41.292Z,14.48
2023-03-21T11:08:37.091Z,17.10
2023-03-21T11:11:29.478Z,28.98
2023-03-21T11:14:37.389Z,14.40
2023-03-21T11:17:29.366Z,58.05
2023-03-21T11:20:22.691Z,17.20
2023-03-21T11:23:12.657Z,11.43
2023-03-21T11:26:00.712Z,16.30
2023-03-21T11:28:48.209Z,15.93
2023-03-21T11:31:40.666Z,15.30
2023-03-21T11:34:45.411Z,17.50
2023-03-21T11:37:34.383Z,18.73
2023-03-21T11:40:23.756Z,19.42
2023-03-21T11:43:19.164Z,20.60
2023-03-21T11:46:13.883Z,15.13
2023-03-21T11:49:09.673Z,20.85
2023-03-21T11:52:23.554Z,17.13
2023-03-21T11:55:33.545Z,13.52
2023-03-21T11:58:43.385Z,12.82
2023-03-21T12:02:08.373Z,14.68
2023-03-21T12:05:05.674Z,12.73
2023-03-21T12:07:55.087Z,32.78
2023-03-21T12:10:47.880Z,16.50
2023-03-21T12:13:34.517Z,13.07
2023-03-21T12:16:37.114Z,18.73
2023-03-21T12:19:47.269Z,20.08
2023-03-21T12:22:52.864Z,14.55
2023-03-21T12:25:43.066Z,12.77
2023-03-21T12:28:54.228Z,15.18
2023-03-21T12:32:22.377Z,15.07
2023-03-21T12:35:42.169Z,18.98
2023-03-21T12:38:46.827Z,17.67
2023-03-21T12:41:35.628Z,17.52
2023-03-21T12:44:24.536Z,14.52
2023-03-21T12:47:16.014Z,15.50
2023-03-21T12:50:15.417Z,17.13
2023-03-21T12:53:43.819Z,17.35
2023-03-21T12:56:38.200Z,16.88
2023-03-21T12:59:32.781Z,276.20
2023-03-21T13:02:22.711Z,23.98
2023-03-21T13:05:29.792Z,40.92
2023-03-21T13:08:34.154Z,28.55
2023-03-21T13:11:24.121Z,33.45
2023-03-21T13:14:29.789Z,28.73
2023-03-21T13:17:47.594Z,45.42
2023-03-21T13:21:09.457Z,34.85
2023-03-21T13:24:48.852Z,51.83
2023-03-21T13:27:37.190Z,58.30
2023-03-21T13:30:28.457Z,22.20
2023-03-21T13:33:22.099Z,27.58
2023-03-21T13:36:09.357Z,22.48
2023-03-21T13:39:05.909Z,64.85
2023-03-21T13:41:54.749Z,17.50
2023-03-21T13:44:50.434Z,24.40
2023-03-21T13:47:52.905Z,25.33
2023-03-21T13:51:00.821Z,25.42
2023-03-21T13:54:01.297Z,31.90
2023-03-21T13:56:47.993Z,18.48
2023-03-21T13:59:43.098Z,35.30
2023-03-21T14:02:32.700Z,25.50
2023-03-21T14:05:24.203Z,17.73
2023-03-21T14:08:24.808Z,21.80
2023-03-21T14:11:19.707Z,98.55
2023-03-21T14:14:07.402Z,49.72
2023-03-21T14:16:54.891Z,36.10
2023-03-21T14:19:44.834Z,41.00
2023-03-21T14:22:33.567Z,114.68
2023-03-21T14:25:24.353Z,29.52
2023-03-21T14:28:18.017Z,27.60
2023-03-21T14:31:05.221Z,29.65
2023-03-21T14:33:54.358Z,27.90
2023-03-21T14:36:45.709Z,26.58
2023-03-21T14:39:35.618Z,31.05
2023-03-21T14:42:26.244Z,27.23
2023-03-21T14:45:20.832Z,42.50
2023-03-21T14:48:13.051Z,30.15
2023-03-21T14:51:06.567Z,23.92
2023-03-21T14:53:53.089Z,35.70
2023-03-21T14:56:41.126Z,42.35
2023-03-21T14:59:34.667Z,54.17
2023-03-21T15:02:27.741Z,39.38
2023-03-21T15:05:31.980Z,49.35
2023-03-21T15:08:21.713Z,57.75
2023-03-21T15:11:12.927Z,26.55
2023-03-21T15:14:05.896Z,26.45
2023-03-21T15:16:57.861Z,39.17
2023-03-21T15:19:47.112Z,70.82
2023-03-21T15:22:38.160Z,49.38
2023-03-21T15:25:34.201Z,57.10
2023-03-21T15:28:26.231Z,90.45
2023-03-21T15:31:44.305Z,42.88
2023-03-21T15:34:31.055Z,105.30
2023-03-21T15:37:27.825Z,138.30
2023-03-21T15:40:21.923Z,78.70
2023-03-21T15:43:41.218Z,70.57
2023-03-21T15:46:45.509Z,84.10
2023-03-21T15:49:34.286Z,107.93
2023-03-21T15:52:21.348Z,124.53
2023-03-21T15:55:23.099Z,143.40
2023-03-21T15:58:16.584Z,130.68
2023-03-21T16:01:11.403Z,198.40
2023-03-21T16:04:09.726Z,202.38
2023-03-21T16:07:03.313Z,188.38
2023-03-21T16:09:50.086Z,141.82
2023-03-21T16:12:37.818Z,143.05
2023-03-21T16:15:26.165Z,164.68
2023-03-21T16:18:16.216Z,159.57
2023-03-21T16:21:06.792Z,178.50
2023-03-21T16:23:55.058Z,302.92
2023-03-21T16:26:48.085Z,280.35
2023-03-21T16:29:39.168Z,132.15
2023-03-21T16:32:25.960Z,115.32
2023-03-21T16:35:16.645Z,91.47
2023-03-21T16:38:05.540Z,90.80
2023-03-21T16:41:04.540Z,86.85
2023-03-21T16:43:53.032Z,117.43
2023-03-21T16:46:43.967Z,73.85
2023-03-21T16:49:31.160Z,112.05
2023-03-21T16:52:21.564Z,139.63
2023-03-21T16:55:09.458Z,245.88
2023-03-21T16:58:03.979Z,168.65
2023-03-21T17:00:58.113Z,124.75
2023-03-21T17:03:48.585Z,91.47
2023-03-21T17:06:45.991Z,153.63
2023-03-21T17:09:38.638Z,219.38
2023-03-21T17:12:29.292Z,104.65
2023-03-21T17:15:26.665Z,105.40
2023-03-21T17:18:14.132Z,112.32
2023-03-21T17:21:17.128Z,110.88
2023-03-21T17:24:13.164Z,104.55
2023-03-21T17:27:17.816Z,141.73
2023-03-21T17:33:36.182Z,120.30
2023-03-21T17:36:39.893Z,105.53
2023-03-21T17:39:35.818Z,86.30
2023-03-21T17:42:27.589Z,93.28
2023-03-21T17:45:21.722Z,135.52
2023-03-21T17:48:31.771Z,135.55
2023-03-21T17:51:26.265Z,186.80
2023-03-21T17:54:18.519Z,146.10
2023-03-21T17:57:14.361Z,117.35
2023-03-21T18:00:15.133Z,120.15
2023-03-21T18:03:07.596Z,111.93
2023-03-21T18:06:08.032Z,112.15
2023-03-21T18:12:16.720Z,84.60
2023-03-21T18:15:14.540Z,79.22
2023-03-21T18:18:40.110Z,91.82
2023-03-21T18:21:33.151Z,101.28
2023-03-21T18:24:29.163Z,147.85
2023-03-21T18:27:35.336Z,152.82
2023-03-21T18:31:04.864Z,113.88
2023-03-21T18:34:00.336Z,140.90
2023-03-21T18:37:16.179Z,112.45
2023-03-21T18:40:48.879Z,145.65
2023-03-21T18:44:12.955Z,175.20
2023-03-21T18:47:00.794Z,181.55
2023-03-21T18:53:07.592Z,179.15
2023-03-21T18:56:01.995Z,172.25
2023-03-21T18:58:53.726Z,138.80
2023-03-21T19:01:53.851Z,170.25
2023-03-21T19:05:05.744Z,204.98
2023-03-21T19:08:02.474Z,161.25
2023-03-21T19:11:16.385Z,168.43
2023-03-21T19:14:06.650Z,178.23
2023-03-21T19:18:05.643Z,200.35
2023-03-21T19:20:21.756Z,295.65
2023-03-21T19:23:43.543Z,290.10
2023-03-21T19:26:40.275Z,270.50
2023-03-21T19:29:41.314Z,283.27
2023-03-21T19:32:34.058Z,286.70
2023-03-21T19:35:25.843Z,344.30
2023-03-21T19:38:15.817Z,322.75
2023-03-21T19:41:05.466Z,275.13
2023-03-21T19:43:55.150Z,303.85
2023-03-21T19:46:48.727Z,362.40
2023-03-21T19:50:10.028Z,207.23
2023-03-21T19:52:48.532Z,225.25
2023-03-21T21:34:00.124Z,93.97
2023-03-21T21:36:51.209Z,88.63
2023-03-21T21:39:45.948Z,93.00
2023-03-21T21:42:36.184Z,95.90
2023-03-21T21:45:28.839Z,87.85
2023-03-21T21:48:19.020Z,88.38
2023-03-21T21:51:16.157Z,87.72
2023-03-21T21:54:04.761Z,99.10
2023-03-21T21:57:18.269Z,87.10
2023-03-21T22:00:13.183Z,81.60
2023-03-21T22:03:11.663Z,86.00
2023-03-21T22:06:05.672Z,86.22
2023-03-21T22:08:59.181Z,86.68
2023-03-21T22:11:52.753Z,83.93
2023-03-21T22:14:43.836Z,84.07
2023-03-21T22:17:37.457Z,74.63
2023-03-21T22:20:32.840Z,80.43
2023-03-21T22:23:23.473Z,80.90
2023-03-21T22:26:15.654Z,91.90
2023-03-21T22:29:16.359Z,90.85
2023-03-21T22:32:10.871Z,93.15
2023-03-21T22:35:01.989Z,88.55
2023-03-21T22:37:54.236Z,92.72
2023-03-21T22:40:42.660Z,93.60
2023-03-21T22:43:36.154Z,99.18
2023-03-21T22:46:26.082Z,93.35
2023-03-21T22:49:17.945Z,98.53
2023-03-21T22:52:06.642Z,102.17
2023-03-21T22:54:53.983Z,82.28
2023-03-21T22:57:45.501Z,90.90
2023-03-21T23:00:39.889Z,84.07
2023-03-21T23:03:44.254Z,84.85
2023-03-21T23:06:40.219Z,79.47
2023-03-21T23:09:39.100Z,96.85
2023-03-21T23:12:31.426Z,77.50
2023-03-21T23:15:27.836Z,80.07
2023-03-21T23:18:15.234Z,85.20
2023-03-21T23:21:19.151Z,78.38
2023-03-21T23:24:18.398Z,83.18
2023-03-21T23:27:08.580Z,78.97
2023-03-21T23:29:58.450Z,78.80
2023-03-21T23:32:51.040Z,75.90
2023-03-21T23:36:07.326Z,71.30
2023-03-21T23:38:59.780Z,75.18
2023-03-21T23:42:10.771Z,70.47
2023-03-21T23:45:01.351Z,70.68
2023-03-21T23:47:51.333Z,70.88
2023-03-21T23:50:42.311Z,71.57
2023-03-21T23:59:16.662Z,68.55
